Time;durP1;ratioP1;P1;durP2;ratioP2;P2;SDS_P1;SDS_P2;PMS_P1;PMS_P2;Temp;Humidity;BMP_temperature;BMP_pressure;BME280_temperature;BME280_humidity;BME280_pressure;Samples;Min_cycle;Max_cycle;Signal;HPM_P1;HPM_P2
2022/07/17 00:01:41;;;;;;;12.70;7.00;;;;;;;14.32;73.05;99861.03;4881875;29;20183;-82
2022/07/17 00:04:38;;;;;;;12.07;7.15;;;;;;;13.60;72.78;99748.41;4880817;29;20056;-82
2022/07/17 00:07:44;;;;;;;15.05;6.97;;;;;;;14.51;73.27;99900.72;4863840;29;20072;-85
2022/07/17 00:10:32;;;;;;;16.77;7.07;;;;;;;13.62;73.43;99749.25;4853301;29;20484;-83
2022/07/17 00:13:16;;;;;;;14.40;6.72;;;;;;;13.35;73.15;99714.97;4866568;29;20108;-81
2022/07/17 00:16:19;;;;;;;10.45;6.38;;;;;;;13.20;73.35;99684.78;4882465;29;20055;-84
2022/07/17 00:20:15;;;;;;;;;;;;;;;;;;;;;
2022/07/17 00:23:22;;;;;;;18.67;6.80;;;;;;;13.60;73.59;99751.03;4874593;29;20097;-82
2022/07/17 00:26:13;;;;;;;11.48;6.55;;;;;;;13.90;73.58;99819.25;4838635;29;20055;-83
2022/07/17 00:29:04;;;;;;;18.35;7.28;;;;;;;13.80;73.46;99779.34;4862548;29;20136;-82
2022/07/17 00:31:33;;;;;;;13.95;7.55;;;;;;;14.34;73.68;99846.13;4844418;29;20108;-82
2022/07/17 00:34:03;;;;;;;16.70;7.40;;;;;;;13.79;73.80;99741.03;4875192;29;20041;-82
2022/07/17 00:36:35;;;;;;;16.70;7.05;;;;;;;13.66;73.38;99736.09;4874804;29;20057;-81
2022/07/17 00:39:39;;;;;;;18.75;6.80;;;;;;;14.75;73.61;99901.06;4863538;29;20052;-83
2022/07/17 00:42:42;;;;;;;13.05;6.45;;;;;;;14.75;73.61;99901.91;4864872;29;20057;-84
2022/07/17 00:45:31;;;;;;;18.50;6.30;;;;;;;13.81;73.61;99749.69;4869908;29;20140;-82
2022/07/17 00:48:04;;;;;;;9.40;6.38;;;;;;;14.63;73.01;99907.44;4850293;29;20116;-82
2022/07/17 00:50:36;;;;;;;11.48;6.40;;;;;;;14.50;73.35;99906.84;4880510;29;20113;-83
2022/07/17 00:53:06;;;;;;;15.18;6.78;;;;;;;14.20;73.79;99867.41;4848974;29;20531;-82
2022/07/17 00:55:38;;;;;;;17.30;7.00;;;;;;;13.89;74.07;99813.16;4848416;29;20581;-84
2022/07/17 00:58:18;;;;;;;14.13;6.22;;;;;;;14.06;74.19;99833.69;4863708;29;20036;-84
2022/07/17 01:01:05;;;;;;;8.68;5.72;;;;;;;14.31;74.47;99869.75;4847985;29;20041;-82
2022/07/17 01:07:47;;;;;;;13.07;6.70;;;;;;;14.40;74.17;99869.56;4881795;29;20478;-82
2022/07/17 01:10:27;;;;;;;12.77;6.43;;;;;;;14.65;74.23;99908.25;4872678;29;20053;-82
2022/07/17 01:13:37;;;;;;;11.57;6.32;;;;;;;14.44;74.32;99878.19;4873183;29;20089;-81
2022/07/17 01:16:24;;;;;;;9.32;6.55;;;;;;;14.11;73.95;99816.13;4871783;29;20064;-83
2022/07/17 01:19:37;;;;;;;;;;;;;;;;;;;;;
2022/07/17 01:23:37;;;;;;;9.02;6.75;;;;;;;14.73;74.18;99893.22;4924896;29;20055;-84
2022/07/17 01:30:11;;;;;;;10.75;6.57;;;;;;;14.78;74.08;99921.94;4889873;29;20052;-83
2022/07/17 01:33:22;;;;;;;10.88;6.10;;;;;;;14.53;74.14;99874.50;4861813;29;20101;-84
2022/07/17 01:36:12;;;;;;;11.93;6.57;;;;;;;14.01;74.14;99796.34;4892089;29;20416;-83
2022/07/17 01:44:22;;;;;;;13.48;6.82;;;;;;;13.67;74.17;99745.66;4827907;29;20035;-83
2022/07/17 01:47:52;;;;;;;9.05;6.03;;;;;;;14.86;74.07;99922.59;4828459;29;20049;-82
2022/07/17 01:50:58;;;;;;;9.70;5.50;;;;;;;14.65;74.04;99895.16;4848714;29;20513;-83
2022/07/17 02:02:48;;;;;;;9.88;6.10;;;;;;;15.00;74.00;99943.22;4776427;30;20127;-82
2022/07/17 02:05:51;;;;;;;8.38;6.20;;;;;;;14.58;73.77;99843.81;4763883;29;20052;-84
2022/07/17 02:08:35;;;;;;;9.80;6.13;;;;;;;15.09;73.89;99918.53;4837950;29;20042;-83
2022/07/17 02:11:07;;;;;;;8.15;5.93;;;;;;;14.49;73.63;99816.13;4828137;29;20084;-82
2022/07/17 02:14:22;;;;;;;9.77;6.25;;;;;;;14.16;73.48;99766.31;4844770;29;20177;-83
2022/07/17 02:21:53;;;;;;;8.35;5.80;;;;;;;15.19;73.56;99887.72;4904202;29;20066;-82
2022/07/17 02:25:33;;;;;;;8.55;5.53;;;;;;;15.33;73.25;99903.97;4881552;29;20087;-83
2022/07/17 02:32:19;;;;;;;9.77;5.63;;;;;;;14.99;73.10;99843.72;4889575;29;20041;-83
2022/07/17 02:34:46;;;;;;;7.85;5.15;;;;;;;14.85;72.93;99828.34;4889679;29;20056;-81
2022/07/17 02:37:21;;;;;;;12.55;5.70;;;;;;;14.87;72.86;99816.06;4899796;29;20460;-82
2022/07/17 02:40:08;;;;;;;9.32;6.00;;;;;;;15.44;72.89;99901.03;4869013;29;20096;-82
2022/07/17 02:43:13;;;;;;;;;;;;;;;15.50;72.85;99910.50;4874790;29;20044;-83
2022/07/17 02:45:58;;;;;;;;;;;;;;;15.56;72.72;99910.31;4889035;29;19994;-83
2022/07/17 02:48:28;;;;;;;6.97;4.90;;;;;;;15.65;72.81;99917.94;4872991;29;19919;-82
2022/07/17 02:50:58;;;;;;;10.18;5.50;;;;;;;15.25;72.51;99822.03;4885114;29;20048;-84
2022/07/17 02:53:24;;;;;;;8.68;5.18;;;;;;;15.31;72.47;99806.13;4869809;29;20044;-82
2022/07/17 02:55:54;;;;;;;8.77;5.30;;;;;;;15.36;72.24;99793.72;4869167;29;20476;-82
2022/07/17 02:58:31;;;;;;;11.02;4.78;;;;;;;16.03;72.44;99881.03;4902330;29;20044;-82
2022/07/17 03:01:06;;;;;;;6.93;4.82;;;;;;;15.29;71.96;99733.66;4888964;29;20052;-81
2022/07/17 03:03:33;;;;;;;10.65;4.57;;;;;;;15.54;71.56;99757.41;4871736;29;20044;-82
2022/07/17 03:06:02;;;;;;;9.38;4.15;;;;;;;16.56;71.30;99903.88;4884152;29;20135;-81
2022/07/17 03:08:51;;;;;;;6.88;4.32;;;;;;;15.65;71.30;99736.94;4902049;29;20111;-82
2022/07/17 03:11:39;;;;;;;6.97;4.30;;;;;;;16.78;71.12;99918.06;4884911;29;20112;-81
2022/07/17 03:17:58;;;;;;;6.60;4.18;;;;;;;16.14;70.64;99759.06;4884606;29;20048;-83
2022/07/17 03:20:36;;;;;;;7.18;4.15;;;;;;;16.22;70.13;99764.94;4882878;29;20036;-82
2022/07/17 03:23:27;;;;;;;9.25;4.43;;;;;;;16.94;70.29;99850.09;4853632;29;20064;-82
2022/07/17 03:29:48;;;;;;;9.13;4.63;;;;;;;16.44;69.60;99751.94;4867089;29;20521;-81
2022/07/17 03:32:50;;;;;;;6.38;4.32;;;;;;;16.50;69.61;99749.13;4875308;29;20045;-84
2022/07/17 03:36:07;;;;;;;7.78;4.95;;;;;;;16.64;69.11;99756.53;4876782;29;20045;-82
2022/07/17 03:42:48;;;;;;;5.90;4.13;;;;;;;16.85;68.61;99741.78;4879520;29;20063;-81
2022/07/17 03:45:16;;;;;;;6.65;4.30;;;;;;;17.35;68.45;99797.00;4863418;29;20542;-82
2022/07/17 03:47:42;;;;;;;7.25;4.93;;;;;;;17.24;68.13;99766.69;4864339;29;20109;-84
2022/07/17 03:50:09;;;;;;;9.70;4.78;;;;;;;18.00;67.78;99877.00;4881397;29;20040;-82
2022/07/17 03:52:35;;;;;;;10.00;4.95;;;;;;;17.80;67.67;99822.50;4880043;29;20055;-83
2022/07/17 03:55:01;;;;;;;7.10;4.28;;;;;;;18.26;67.56;99895.38;4882769;29;20048;-81
2022/07/17 03:57:29;;;;;;;8.55;4.97;;;;;;;18.19;67.28;99868.41;4887393;29;20045;-84
2022/07/17 03:59:55;;;;;;;11.57;4.82;;;;;;;18.38;66.68;99886.97;4887669;29;20104;-80
2022/07/17 04:02:23;;;;;;;10.32;4.88;;;;;;;18.30;66.57;99873.25;4875774;29;20081;-84
2022/07/17 04:04:49;;;;;;;9.82;4.47;;;;;;;18.19;66.29;99835.03;4898897;29;20040;-83
2022/07/17 04:07:30;;;;;;;7.93;4.70;;;;;;;18.64;66.06;99887.69;4898289;29;20048;-81
2022/07/17 04:10:06;;;;;;;8.43;4.78;;;;;;;18.39;65.90;99803.56;4855516;29;20070;-84
2022/07/17 04:12:35;;;;;;;6.78;3.95;;;;;;;19.22;65.12;99892.31;4879031;29;20425;-82
2022/07/17 04:18:04;;;;;;;11.95;4.55;;;;;;;19.27;64.17;99821.78;4864676;29;20080;-84
2022/07/17 04:20:42;;;;;;;9.68;4.95;;;;;;;20.03;64.05;99872.91;4865634;29;20104;-86
2022/07/17 04:23:20;;;;;;;10.57;4.45;;;;;;;20.45;62.98;99884.13;4870040;29;20052;-83
2022/07/17 04:25:50;;;;;;;10.85;4.05;;;;;;;20.52;62.16;99815.97;4897961;29;20041;-83
2022/07/17 04:28:17;;;;;;;9.52;3.80;;;;;;;21.36;61.48;99871.63;4898605;29;20040;-83
2022/07/17 04:31:10;;;;;;;8.13;4.18;;;;;;;21.17;60.27;99765.94;4882419;29;20052;-84
2022/07/17 04:33:42;;;;;;;13.68;3.92;;;;;;;21.89;58.53;99810.59;4881600;29;20048;-83
2022/07/17 04:36:22;;;;;;;7.03;3.47;;;;;;;21.79;57.50;99793.50;4896934;29;20138;-85
2022/07/17 04:39:17;;;;;;;12.18;3.67;;;;;;;21.82;56.09;99785.38;4897804;29;20501;-84
2022/07/17 04:41:48;;;;;;;9.95;3.50;;;;;;;21.60;56.10;99746.84;4868392;29;20052;-83
2022/07/17 04:44:14;;;;;;;8.77;3.55;;;;;;;22.14;55.23;99840.13;4889356;29;20044;-84
2022/07/17 04:46:41;;;;;;;9.18;3.30;;;;;;;22.20;55.03;99882.19;4899758;29;20119;-83
2022/07/17 04:49:07;;;;;;;8.60;2.88;;;;;;;21.99;54.62;99863.03;4882848;29;20044;-85
2022/07/17 04:51:33;;;;;;;4.07;2.50;;;;;;;21.62;54.52;99818.28;4897728;29;20055;-83
2022/07/17 04:54:00;;;;;;;12.40;2.80;;;;;;;21.80;54.70;99833.16;4869543;29;20048;-84
2022/07/17 04:56:26;;;;;;;17.05;3.17;;;;;;;21.86;53.82;99825.78;4882300;29;20108;-84
2022/07/17 04:58:53;;;;;;;7.95;3.40;;;;;;;21.91;53.36;99800.78;4902167;29;20044;-86
2022/07/17 05:01:21;;;;;;;6.65;3.33;;;;;;;22.33;53.01;99864.66;4900154;29;20068;-83
2022/07/17 05:03:48;;;;;;;8.10;4.03;;;;;;;22.23;53.04;99807.84;4881729;29;20685;-82
2022/07/17 05:06:17;;;;;;;6.88;4.25;;;;;;;22.52;52.23;99835.34;4896518;29;20048;-82
2022/07/17 05:08:44;;;;;;;7.03;3.83;;;;;;;22.73;52.35;99860.69;4901022;29;20068;-80
2022/07/17 05:11:10;;;;;;;7.13;3.40;;;;;;;22.94;52.26;99866.50;4890188;29;20107;-82
2022/07/17 05:13:36;;;;;;;5.47;3.35;;;;;;;22.90;51.86;99831.38;4910124;29;20123;-83
2022/07/17 05:16:05;;;;;;;6.97;3.10;;;;;;;22.84;51.05;99810.50;4908703;29;20040;-82
2022/07/17 05:18:34;;;;;;;7.32;3.38;;;;;;;23.31;51.32;99870.50;4899510;29;20051;-81
2022/07/17 05:21:00;;;;;;;6.38;3.13;;;;;;;23.44;50.96;99848.47;4898344;29;20481;-84
2022/07/17 05:23:27;;;;;;;5.32;3.35;;;;;;;23.74;50.35;99843.03;4884637;29;20055;-82
2022/07/17 05:25:53;;;;;;;5.30;3.65;;;;;;;24.03;49.39;99874.91;4883709;29;20075;-84
2022/07/17 05:28:19;;;;;;;5.57;3.55;;;;;;;23.98;48.88;99881.47;4884276;29;20040;-84
2022/07/17 05:30:45;;;;;;;5.05;4.10;;;;;;;23.61;48.52;99836.81;4900620;29;20047;-83
2022/07/17 05:33:11;;;;;;;5.13;3.70;;;;;;;23.25;49.21;99793.88;4917974;29;20044;-84
2022/07/17 05:35:37;;;;;;;3.63;3.28;;;;;;;23.28;49.25;99756.53;4917182;29;20040;-82
2022/07/17 05:38:07;;;;;;;5.28;3.17;;;;;;;24.34;49.01;99864.09;4868219;29;20044;-81
2022/07/17 05:40:33;;;;;;;5.93;3.40;;;;;;;24.05;48.29;99756.09;4868434;29;20035;-84
2022/07/17 05:43:02;;;;;;;5.45;2.80;;;;;;;24.02;47.61;99724.41;4898973;29;20492;-80
2022/07/17 05:45:28;;;;;;;4.97;2.70;;;;;;;25.24;46.99;99864.31;4900268;29;20527;-82
2022/07/17 05:47:54;;;;;;;6.70;2.95;;;;;;;25.41;46.48;99844.47;4884564;29;20043;-82
2022/07/17 05:50:20;;;;;;;4.82;3.08;;;;;;;25.53;45.29;99847.28;4915619;29;20051;-81
2022/07/17 05:52:46;;;;;;;3.97;2.47;;;;;;;25.93;45.57;99823.09;4898912;29;20044;-80
2022/07/17 05:55:13;;;;;;;3.92;2.90;;;;;;;28.21;44.12;99835.03;4903118;29;20111;-80
2022/07/17 05:57:39;;;;;;;4.30;2.72;;;;;;;30.48;40.97;99820.84;4886314;29;20056;-80
2022/07/17 06:00:06;;;;;;;4.10;2.40;;;;;;;32.49;37.93;99818.72;4886023;29;20448;-81
2022/07/17 06:02:45;;;;;;;3.58;2.30;;;;;;;34.02;34.34;99766.94;4903333;29;20103;-84
2022/07/17 06:08:45;;;;;;;4.03;2.30;;;;;;;37.02;30.12;99821.22;4904697;29;20419;-84
2022/07/17 06:11:16;;;;;;;6.97;2.77;;;;;;;37.38;28.33;99722.78;4887268;29;20048;-84
2022/07/17 06:14:07;;;;;;;6.53;2.75;;;;;;;38.75;26.26;99825.22;4902006;29;20368;-83
2022/07/17 06:16:51;;;;;;;2.83;2.20;;;;;;;39.33;25.39;99760.75;4920623;29;20056;-83
2022/07/17 06:19:17;;;;;;;3.92;2.20;;;;;;;40.09;24.22;99803.22;4920288;29;20066;-83
2022/07/17 06:21:43;;;;;;;9.95;4.60;;;;;;;40.75;22.88;99781.69;4901827;29;20064;-84
2022/07/17 06:28:43;;;;;;;3.72;2.50;;;;;;;42.32;21.22;99770.63;4849052;29;20048;-81
2022/07/17 06:32:05;;;;;;;7.28;2.70;;;;;;;42.50;20.49;99724.22;4805505;29;20055;-83
2022/07/17 06:34:54;;;;;;;6.47;2.40;;;;;;;43.25;19.78;99789.91;4792136;29;20637;-81
2022/07/17 06:37:22;;;;;;;3.78;2.67;;;;;;;44.02;19.16;99792.00;4918190;29;20048;-82
2022/07/17 06:39:51;;;;;;;5.78;2.92;;;;;;;44.87;18.60;99786.38;4922909;29;20036;-82
2022/07/17 06:42:19;;;;;;;5.28;2.20;;;;;;;45.46;17.92;99754.34;4910763;29;20051;-82
2022/07/17 06:44:45;;;;;;;3.97;2.60;;;;;;;46.16;17.16;99772.38;4887212;29;20040;-84
2022/07/17 06:47:14;;;;;;;4.18;2.60;;;;;;;46.62;16.42;99776.91;4901993;29;20044;-85
2022/07/17 06:49:41;;;;;;;3.58;2.47;;;;;;;46.91;16.36;99750.06;4884755;29;20108;-82
2022/07/17 06:52:07;;;;;;;3.35;2.85;;;;;;;47.26;15.83;99805.00;4901418;29;20044;-85
2022/07/17 06:54:33;;;;;;;3.92;2.50;;;;;;;47.41;15.19;99752.84;4885608;29;20419;-81
2022/07/17 06:56:59;;;;;;;3.55;1.90;;;;;;;47.93;14.94;99781.72;4889700;29;20071;-84
2022/07/17 06:59:25;;;;;;;2.72;2.15;;;;;;;48.31;14.57;99780.94;4907189;29;20044;-83
2022/07/17 07:01:52;;;;;;;2.88;2.10;;;;;;;49.04;14.03;99776.66;4921290;29;20140;-82
2022/07/17 07:04:18;;;;;;;3.10;2.15;;;;;;;49.43;13.53;99779.84;4906356;29;20115;-80
2022/07/17 07:06:46;;;;;;;2.72;2.42;;;;;;;49.04;13.47;99783.00;4919909;29;20519;-86
2022/07/17 07:09:12;;;;;;;3.00;2.10;;;;;;;48.94;13.03;99786.56;4900754;29;20177;-86
2022/07/17 07:11:44;;;;;;;3.58;2.90;;;;;;;49.19;13.46;99796.06;4887639;29;20594;-82
2022/07/17 07:14:10;;;;;;;3.28;2.72;;;;;;;49.98;12.73;99798.72;4901551;29;20047;-82
2022/07/17 07:16:40;;;;;;;3.72;2.70;;;;;;;50.33;12.66;99772.16;4870336;29;20520;-81
2022/07/17 07:19:09;;;;;;;3.53;2.20;;;;;;;50.32;11.93;99729.00;4902169;29;20055;-82
2022/07/17 07:21:36;;;;;;;3.10;2.13;;;;;;;50.46;12.05;99722.88;4900754;29;20063;-84
2022/07/17 07:24:30;;;;;;;3.70;1.95;;;;;;;50.52;11.79;99702.41;4918698;29;20047;-83
2022/07/17 07:26:58;;;;;;;3.35;2.10;;;;;;;50.59;11.29;99700.19;4899446;29;20143;-82
2022/07/17 07:32:20;;;;;;;2.00;1.80;;;;;;;49.43;12.48;99740.38;4861372;29;20589;-84
2022/07/17 07:34:55;;;;;;;2.42;2.03;;;;;;;50.21;11.67;99746.72;4898239;29;20099;-89
2022/07/17 07:37:24;;;;;;;3.33;2.15;;;;;;;50.92;11.57;99714.41;4888463;29;20139;-86
2022/07/17 07:39:54;;;;;;;2.60;2.13;;;;;;;51.47;10.84;99735.69;4873805;29;20131;-86
2022/07/17 07:42:23;;;;;;;2.00;1.90;;;;;;;50.43;10.87;99696.59;4893564;29;20044;-82
2022/07/17 07:44:49;;;;;;;;;;;;;;;50.24;11.77;99770.25;4898706;29;20076;-84
2022/07/17 07:47:18;;;;;;;3.10;1.95;;;;;;;49.49;12.35;99735.69;4925800;29;19925;-83
2022/07/17 07:49:49;;;;;;;2.75;1.85;;;;;;;50.52;11.27;99734.78;4922254;29;20039;-84
2022/07/17 07:52:19;;;;;;;3.17;2.10;;;;;;;51.45;10.74;99712.16;4923630;29;20099;-85
2022/07/17 07:54:58;;;;;;;3.58;2.45;;;;;;;50.48;10.80;99759.38;4908039;29;20091;-84
2022/07/17 07:57:27;;;;;;;4.25;2.70;;;;;;;46.94;11.96;99754.22;4925255;29;20047;-85
2022/07/17 08:00:12;;;;;;;4.97;2.33;;;;;;;44.59;13.27;99716.63;4907860;29;20043;-86
2022/07/17 08:02:45;;;;;;;3.72;1.90;;;;;;;44.39;13.58;99714.22;4874224;29;20064;-86
2022/07/17 08:05:29;;;;;;;4.55;1.70;;;;;;;43.08;14.43;99767.78;4905505;29;20078;-86
2022/07/17 08:08:06;;;;;;;3.17;1.83;;;;;;;44.01;13.77;99793.06;4904043;29;20503;-83
2022/07/17 08:11:20;;;;;;;4.20;2.38;;;;;;;45.93;13.11;99797.22;4873105;29;20102;-85
2022/07/17 08:14:00;;;;;;;5.82;2.42;;;;;;;46.96;12.12;99740.22;4902701;29;20103;-86
2022/07/17 08:16:39;;;;;;;2.78;1.90;;;;;;;48.29;11.61;99797.75;4919830;29;20051;-84
2022/07/17 08:19:06;;;;;;;4.55;1.95;;;;;;;48.64;10.65;99751.38;4919788;29;20044;-84
2022/07/17 08:21:32;;;;;;;4.38;2.00;;;;;;;48.03;11.07;99725.03;4898335;29;20053;-85
2022/07/17 08:24:02;;;;;;;2.13;1.40;;;;;;;46.19;11.32;99803.19;4884325;29;20071;-85
2022/07/17 08:26:51;;;;;;;2.55;1.17;;;;;;;42.22;13.27;99728.25;4901265;29;20071;-86
2022/07/17 08:29:17;;;;;;;2.42;1.30;;;;;;;40.44;14.42;99712.31;4902552;29;20051;-86
2022/07/17 08:32:18;;;;;;;4.60;1.40;;;;;;;40.09;14.69;99729.69;4883831;29;20080;-85
2022/07/17 08:34:48;;;;;;;2.78;1.38;;;;;;;39.85;14.97;99699.31;4855214;29;20060;-87
2022/07/17 08:37:14;;;;;;;2.50;1.20;;;;;;;40.37;14.70;99734.13;4900101;29;20054;-85
2022/07/17 08:39:41;;;;;;;3.08;1.52;;;;;;;40.53;15.67;99740.16;4902323;29;20076;-86
2022/07/17 08:42:15;;;;;;;2.65;1.30;;;;;;;39.81;15.63;99716.28;4887339;29;20052;-84
2022/07/17 08:44:50;;;;;;;2.70;1.50;;;;;;;40.27;15.62;99777.31;4894086;29;20048;-82
2022/07/17 08:47:17;;;;;;;1.85;1.30;;;;;;;38.86;16.12;99694.19;4896068;29;20036;-84
2022/07/17 08:49:48;;;;;;;2.10;1.27;;;;;;;39.08;16.56;99797.41;4914194;29;20051;-82
2022/07/17 08:52:15;;;;;;;3.15;1.40;;;;;;;38.90;16.60;99783.50;4900525;29;20049;-83
2022/07/17 08:54:42;;;;;;;2.15;1.50;;;;;;;39.33;16.60;99764.28;4916589;29;20040;-86
2022/07/17 08:57:34;;;;;;;2.72;1.30;;;;;;;39.81;16.77;99793.38;4897485;29;20562;-83
2022/07/17 09:01:02;;;;;;;2.95;1.55;;;;;;;41.37;16.14;99794.94;4905352;29;20493;-84
2022/07/17 09:10:02;;;;;;;;;;;;;;;;;;;;;
2022/07/17 09:13:20;;;;;;;3.45;1.15;;;;;;;41.48;15.98;99799.72;4757141;30;20044;-86
2022/07/17 09:15:51;;;;;;;2.15;1.30;;;;;;;42.14;15.36;99767.63;4853810;29;20115;-87
2022/07/17 09:18:46;;;;;;;5.85;1.40;;;;;;;43.07;14.57;99714.97;4888142;29;20057;-85
2022/07/17 09:21:44;;;;;;;2.03;1.20;;;;;;;42.97;14.32;99670.91;4885529;29;20065;-85
2022/07/17 09:24:22;;;;;;;1.65;1.20;;;;;;;44.21;13.80;99720.69;4870930;29;20040;-84
2022/07/17 09:26:49;;;;;;;2.30;1.15;;;;;;;43.89;13.83;99701.81;4902585;29;20044;-84
2022/07/17 09:29:21;;;;;;;2.28;1.10;;;;;;;44.94;13.12;99810.94;4889900;29;20177;-82
2022/07/17 09:32:12;;;;;;;1.77;1.13;;;;;;;44.67;12.94;99686.09;4907692;29;20409;-84
2022/07/17 09:35:05;;;;;;;2.85;1.10;;;;;;;45.45;12.56;99767.25;4876553;29;20071;-85
2022/07/17 09:37:37;;;;;;;1.95;1.40;;;;;;;45.60;12.78;99749.38;4890599;29;20115;-87
2022/07/17 09:43:39;;;;;;;3.63;1.35;;;;;;;45.04;12.96;99668.44;4905564;29;20047;-86
2022/07/17 09:46:08;;;;;;;2.97;1.30;;;;;;;45.20;12.31;99666.81;4902367;29;20421;-84
2022/07/17 09:49:13;;;;;;;;;;;;;;;;;;;;;
2022/07/17 09:51:58;;;;;;;2.00;1.60;;;;;;;47.08;11.94;99710.63;4895176;29;20139;-86
2022/07/17 09:54:33;;;;;;;2.00;1.40;;;;;;;47.09;11.74;99731.56;4902464;29;20072;-87
2022/07/17 09:57:28;;;;;;;5.32;1.92;;;;;;;46.61;11.31;99698.22;4876423;29;20073;-88
2022/07/17 10:00:57;;;;;;;;;;;;;;;;;;;;;
2022/07/17 10:03:25;;;;;;;2.83;1.85;;;;;;;45.69;11.75;99674.59;4906735;29;20464;-86
2022/07/17 10:05:51;;;;;;;2.53;1.40;;;;;;;44.39;11.66;99785.50;4891542;29;20096;-83
2022/07/17 10:08:19;;;;;;;2.00;1.17;;;;;;;42.62;12.35;99674.25;4893768;29;20036;-86
2022/07/17 10:11:10;;;;;;;4.10;1.20;;;;;;;41.84;12.56;99682.72;4893504;29;20064;-83
2022/07/17 10:14:02;;;;;;;2.50;1.03;;;;;;;40.62;13.31;99681.66;4904838;29;20051;-83
2022/07/17 10:16:31;;;;;;;1.73;1.63;;;;;;;39.67;13.91;99735.31;4878525;29;20543;-82
2022/07/17 10:19:14;;;;;;;1.38;1.27;;;;;;;38.56;15.29;99708.03;4891331;29;20049;-85
2022/07/17 10:22:00;;;;;;;2.90;1.45;;;;;;;38.42;16.09;99639.19;4905252;29;20071;-86
2022/07/17 10:24:30;;;;;;;2.78;1.60;;;;;;;39.33;15.81;99723.47;4891251;29;20586;-85
2022/07/17 10:27:31;;;;;;;3.00;1.60;;;;;;;38.95;15.87;99787.28;4902029;29;20424;-84
2022/07/17 10:30:13;;;;;;;2.60;1.73;;;;;;;38.50;17.18;99784.06;4900311;29;20587;-82
2022/07/17 10:33:11;;;;;;;2.88;1.90;;;;;;;37.79;17.05;99745.78;4906600;29;20048;-83
2022/07/17 10:35:51;;;;;;;2.30;1.88;;;;;;;37.21;17.94;99789.97;4907181;29;20052;-86
2022/07/17 10:38:28;;;;;;;2.47;2.20;;;;;;;35.89;18.41;99686.44;4874594;29;20124;-83
2022/07/17 10:41:02;;;;;;;1.90;1.63;;;;;;;35.64;19.25;99788.56;4888143;29;20429;-84
2022/07/17 10:44:17;;;;;;;4.32;1.70;;;;;;;34.27;20.07;99710.25;4905482;29;20067;-83
2022/07/17 10:46:49;;;;;;;3.55;1.73;;;;;;;33.48;20.53;99657.56;4887284;29;20583;-83
2022/07/17 10:49:52;;;;;;;2.03;1.30;;;;;;;34.13;20.16;99761.19;4894072;29;20060;-85
2022/07/17 10:52:21;;;;;;;1.70;1.13;;;;;;;34.10;20.08;99748.03;4890713;29;20445;-86
2022/07/17 10:54:57;;;;;;;2.85;1.10;;;;;;;34.40;19.47;99767.25;4907404;29;20073;-84
2022/07/17 10:57:39;;;;;;;1.13;0.90;;;;;;;33.38;19.07;99632.66;4888560;29;20048;-85
2022/07/17 11:00:10;;;;;;;2.92;1.40;;;;;;;33.06;19.68;99624.28;4904669;29;20466;-85
2022/07/17 11:02:52;;;;;;;2.22;1.20;;;;;;;33.25;19.60;99639.31;4905590;29;20055;-88
2022/07/17 11:05:19;;;;;;;3.20;1.10;;;;;;;33.59;19.73;99646.47;4895432;29;20134;-85
2022/07/17 11:08:01;;;;;;;1.20;1.00;;;;;;;33.80;19.80;99696.41;4906232;29;20076;-82
2022/07/17 11:10:55;;;;;;;1.60;1.20;;;;;;;33.67;20.20;99712.22;4905195;29;20503;-84
2022/07/17 11:14:19;;;;;;;2.20;1.10;;;;;;;33.90;20.16;99755.63;4908191;29;20420;-85
2022/07/17 11:17:18;;;;;;;2.47;1.27;;;;;;;33.34;20.24;99726.44;4890916;29;20044;-84
2022/07/17 11:19:44;;;;;;;3.70;1.60;;;;;;;33.43;20.52;99779.41;4885451;29;20143;-84
2022/07/17 11:22:49;;;;;;;3.70;1.15;;;;;;;32.83;20.52;99704.84;4891076;29;20056;-83
2022/07/17 11:25:07;;;;;;;1.35;1.10;;;;;;;32.17;20.76;99639.78;4904116;29;20416;-84
2022/07/17 11:27:34;;;;;;;1.88;1.00;;;;;;;32.32;20.66;99702.84;4883147;29;20045;-82
2022/07/17 11:30:03;;;;;;;1.60;1.17;;;;;;;32.12;20.34;99691.38;4897582;29;20416;-83
2022/07/17 11:32:38;;;;;;;2.53;1.00;;;;;;;32.17;19.89;99715.13;4881886;29;20055;-84
2022/07/17 11:35:22;;;;;;;1.52;1.10;;;;;;;31.85;20.83;99745.16;4898293;29;20052;-84
2022/07/17 11:37:52;;;;;;;2.53;1.40;;;;;;;31.02;21.17;99637.69;4867373;29;20512;-83
2022/07/17 11:40:22;;;;;;;2.92;1.58;;;;;;;30.60;22.41;99622.94;4883441;29;20040;-85
2022/07/17 11:43:00;;;;;;;4.57;1.63;;;;;;;30.26;23.32;99626.09;4899407;29;20119;-84
2022/07/17 11:45:30;;;;;;;4.38;1.50;;;;;;;30.04;23.54;99617.41;4883571;29;20526;-86
2022/07/17 11:48:25;;;;;;;4.30;1.40;;;;;;;30.83;24.56;99765.69;4888016;29;20504;-84
2022/07/17 11:51:05;;;;;;;2.33;1.30;;;;;;;29.95;24.76;99659.31;4896456;29;20049;-85
2022/07/17 11:53:34;;;;;;;2.13;1.35;;;;;;;29.67;24.77;99629.72;4869729;29;20036;-85
2022/07/17 11:56:01;;;;;;;4.00;1.70;;;;;;;29.96;25.75;99695.91;4897275;29;20048;-82
2022/07/17 11:58:53;;;;;;;4.45;1.73;;;;;;;29.53;26.01;99646.19;4866700;29;20067;-82
2022/07/17 12:01:44;;;;;;;3.40;1.55;;;;;;;30.31;25.91;99780.31;4882405;29;20420;-84
2022/07/17 12:04:23;;;;;;;6.35;1.70;;;;;;;29.46;26.42;99640.56;4882359;29;20048;-83
2022/07/17 12:07:08;;;;;;;2.83;1.55;;;;;;;30.08;26.19;99776.22;4882093;29;20270;-86
2022/07/17 12:13:16;;;;;;;3.03;2.00;;;;;;;28.80;26.73;99653.47;4874214;29;20052;-85
2022/07/17 12:16:28;;;;;;;2.20;1.60;;;;;;;29.08;27.29;99719.81;4884259;29;20153;-83
2022/07/17 12:19:22;;;;;;;2.83;1.77;;;;;;;29.11;27.09;99727.59;4898477;29;20048;-85
2022/07/17 12:22:03;;;;;;;2.63;1.40;;;;;;;29.29;27.18;99757.25;4881934;29;20560;-84
2022/07/17 12:24:35;;;;;;;4.00;1.90;;;;;;;28.95;27.35;99717.38;4896969;29;20107;-82
2022/07/17 12:27:04;;;;;;;2.78;1.77;;;;;;;28.79;27.41;99724.06;4883696;29;20472;-82
2022/07/17 12:29:33;;;;;;;2.72;1.50;;;;;;;28.70;27.50;99711.44;4900336;29;20037;-84
2022/07/17 12:32:05;;;;;;;3.63;1.60;;;;;;;29.06;27.63;99776.19;4899807;29;20124;-84
2022/07/17 12:35:01;;;;;;;3.28;1.58;;;;;;;28.53;27.70;99716.44;4897202;29;20044;-84
2022/07/17 12:37:38;;;;;;;2.28;1.40;;;;;;;28.79;27.75;99753.53;4882814;29;20167;-85
2022/07/17 12:40:32;;;;;;;3.15;1.40;;;;;;;28.82;27.92;99766.63;4883646;29;20055;-86
2022/07/17 12:42:58;;;;;;;3.30;1.60;;;;;;;28.77;27.54;99758.16;4899522;29;20044;-84
2022/07/17 12:45:25;;;;;;;4.63;2.03;;;;;;;28.70;27.30;99738.22;4896639;29;20144;-82
2022/07/17 12:47:54;;;;;;;3.10;1.77;;;;;;;28.21;27.68;99657.66;4881715;29;20056;-84
2022/07/17 12:50:29;;;;;;;3.75;1.90;;;;;;;28.31;27.93;99695.19;4881102;29;20080;-82
2022/07/17 12:53:18;;;;;;;3.05;1.73;;;;;;;28.56;28.40;99764.34;4897881;29;20041;-85
2022/07/17 12:56:06;;;;;;;3.83;1.80;;;;;;;27.51;28.34;99618.00;4899083;29;20053;-82
2022/07/17 12:58:33;;;;;;;3.25;1.75;;;;;;;27.63;28.24;99649.06;4882600;29;20060;-85
2022/07/17 13:01:02;;;;;;;5.22;1.70;;;;;;;27.86;28.60;99664.13;4889572;29;20064;-81
2022/07/17 13:03:28;;;;;;;3.13;1.42;;;;;;;27.48;28.68;99599.53;4905965;29;20108;-82
2022/07/17 13:06:00;;;;;;;2.67;1.55;;;;;;;27.94;28.30;99667.03;4889119;29;20101;-83
2022/07/17 13:09:14;;;;;;;3.03;1.25;;;;;;;28.55;28.56;99745.72;4904027;29;20068;-85
2022/07/17 13:12:35;;;;;;;3.97;1.40;;;;;;;28.63;28.25;99742.38;4885091;29;20127;-85
2022/07/17 13:19:43;;;;;;;4.18;1.80;;;;;;;28.33;28.65;99757.41;4889825;29;20436;-83
2022/07/17 13:22:09;;;;;;;3.88;2.05;;;;;;;27.33;28.90;99618.50;4900797;29;20075;-83
2022/07/17 13:24:36;;;;;;;2.95;1.58;;;;;;;27.47;29.50;99640.63;4883582;29;20049;-85
2022/07/17 13:27:02;;;;;;;3.15;1.52;;;;;;;27.93;29.40;99732.16;4904509;29;20257;-83
2022/07/17 13:29:28;;;;;;;3.45;1.52;;;;;;;27.60;29.93;99692.06;4903164;29;20036;-82
2022/07/17 13:32:53;;;;;;;3.90;1.92;;;;;;;28.02;29.53;99743.91;4888135;29;20045;-84
2022/07/17 13:43:55;;;;;;;4.07;1.70;;;;;;;26.96;29.45;99642.00;4739077;30;20570;-84
2022/07/17 13:46:31;;;;;;;3.00;1.65;;;;;;;27.27;29.65;99699.13;4783177;29;20066;-83
2022/07/17 13:49:34;;;;;;;;;;;;;;;;;;;;;
2022/07/17 13:57:21;;;;;;;3.38;1.80;;;;;;;26.14;30.40;99652.75;4785851;29;20054;-82
2022/07/17 13:59:54;;;;;;;4.10;1.63;;;;;;;26.59;30.35;99704.47;4817053;29;20082;-82
2022/07/17 14:02:20;;;;;;;3.15;1.80;;;;;;;26.73;30.69;99735.38;4879379;29;20064;-82
2022/07/17 14:04:47;;;;;;;4.80;1.70;;;;;;;26.52;30.39;99706.75;4907369;29;20099;-83
2022/07/17 14:07:14;;;;;;;3.00;1.88;;;;;;;26.25;30.47;99672.38;4892124;29;20053;-84